メインページ
METAR-TAF:

METAR-TAF

空港 :

デンバー, コロラド州, アメリカ合衆国

デンバー国際空港

緯度: 39-49-58N, 経度: 104-39-27W, 海抜: 1655m

現時点の気象観測

当レポートは23分前の22:53(UTC)に作成
の風 10kt
気温 12°C
湿度 67%
気圧 1022 hPa
視程: 16.1km
高度3200ftの雲はほとんどない
高度4600ftの千切れ雲あり
高度12000ftの千切れ雲あり
高度20000ftの千切れ雲あり
小雨

METAR: KDEN 272253Z 01010KT 10SM -RA FEW032 BKN046 BKN120 BKN200 12/06 A3019 RMK AO2 RAB51 SLP188 P0000 T01220056

時間: 17:16 (23:16 UTC)

予報

当レポートは50分前の22:26(UTC)に作成
予報は27日の 22時(UTC)から 28日の 24時(UTC)まで有効
西の風 7kt
視程: 10km
高度4000ftの雲はほとんどない
高度6000ftの雲は散在している
高度12000ftの千切れ雲あり
27日の 2245時(UTC)から
の風 11kt
視程: 8.0km
高度2500ftの雲は散在している
高度4000ftの千切れ雲あり, 積乱雲.
高度6000ftの千切れ雲あり
小雨, 近辺で激しい雷雨
28日の 0000時(UTC)から
北西の風 9kt
視程: 10km
高度4500ftの雲は散在している
高度6000ftの千切れ雲あり
近辺でにわか雨
28日の 0100時(UTC)から
西の風 7kt
視程: 10km
高度6000ftの雲は散在している
高度12000ftの千切れ雲あり
28日の 0500時(UTC)から
西/南西の風 6kt
視程: 10km
高度6000ftの雲はほとんどない
高度12000ftの雲は散在している
28日の 1500時(UTC)から
北西の風 7kt
視程: 10km
高度14000ftの雲はほとんどない
28日の 2000時(UTC)から
北/北西の風 10kt
視程: 10km
高度8000ftの雲はほとんどない
高度12000ftの雲は散在している

TAF: KDEN 272226Z 2722/2824 28007KT P6SM FEW040 SCT060 BKN120 FM272245 35011KT 5SM -RA VCTS SCT025 BKN040CB BKN060 FM280000 32009KT P6SM VCSH SCT045 BKN060 FM280100 28007KT P6SM SCT060 BKN120 FM280500 24006KT P6SM FEW060 SCT120 FM281500 32007KT P6SM FEW140 FM282000 33010KT P6SM FEW080 SCT120

4,000以上の空港の気象観測と天気予報(METAR報とTAF報)

利用可能な観測所は地図上に黄色い丸と赤い丸で示す。

丸の上にカーソルを重ねると観測所名を参照できる。

次にクリックすると気象観測と天気予報を参照できる。

マップの切り替え:黒色「×」印の緑ボタンをクリックして拡大、「-」印の緑ボタンをクリックして縮小、緑色の三角印をクリックして隣りの地図に切り替え


METAR-TAF: